Terminal Aerodrome Forecast
Issued by NWS

Current Version | Previous Version | Graphics & Text | Print | Product List | Glossary On
Versions: 1 2 3 4 5 6 7 8 9 10 11 12 13 14 15 16 17 18 19 20 21 22 23 24 25 26 27 28 29 30 31 32 33 34
000
FTUS41 KRNK 262351
TAFLWB
TAF
KLWB 262351Z 2700/2724 VRB04KT P6SM VCSH SCT015 OVC090
     FM270300 VRB03KT 4SM -SHRA BR BKN009 OVC018
     FM270600 27003KT 4SM BR SCT004 OVC015
      TEMPO 2709/2713 1/4SM FG VV001
     FM271400 28005KT P6SM OVC015
     FM271800 30008KT P6SM BKN025=

USA.gov is the U.S. government's official web portal to all federal, state and local government web resources and services.